Blue Hill Meteorological Observatory

42° 12' 44"N, 71° 06' 53"W, Elevation 635 ft.
Eastern Time

Hourly observations for the last 72 hours

Date Time Temperature (°F) Humi-
dity

(%)
Wind
(mph)
Pressure Rain (in) Sun
(W/m2)
ET
(in)
Air Dew 6 Hour 1 Hr 3 Hr 6 Hr Day
Alt
(in)
Sea
Level

(mb)
Max Min
24 18:00 57.3 42.7 58 W 16 G 22 29.78 1008.5 0.02 33 0.150
24 17:00 59.9 43.7 55 W 12 G 27 29.76 1007.8 0.02 236 0.139
24 16:00 62.7 44.3 51 W 18 G 29 29.73 1006.8 0.02 494 0.122
24 15:00 64.0 46.0 52 WSW 15 G 26 29.71 1006.1 0.02 693 0.101
24 14:00 63.7 44.2 49 W 12 G 22 29.71 1006.0 0.02 780 0.079
24 13:00 63.0 46.1 63.5 48.9 54 W 14 G 26 29.71 1006.1 0.01 0.02 898 0.054
24 12:00 62.4 48.3 60 W 15 G 26 29.70 1005.9 0.02 1030 0.033
24 11:00 61.2 50.6 68 WSW 15 G 22 29.70 1005.7 0.02 1065 0.017
24 10:00 54.9 53.8 96 W 13 G 20 29.69 1005.6 0.01 0.01 0.02 1000 0.008
24 09:00 52.0 51.5 98 WSW 11 G 15 29.71 1006.0 0.01 116 0.004
24 08:00 50.0 49.5 98 WSW 9 G 11 29.70 1005.9 0.01 207 0.002
24 07:00 49.0 48.5 49.1 45.4 98 SSW 8 G 14 29.69 1005.5 0.01 0.01 121 0.001
24 06:00 48.3 47.8 98 S 9 G 13 29.70 1005.7 0.01 46 0.000
24 05:00 47.7 47.2 98 S 11 G 16 29.69 1005.5 0.01 0 0.000
24 04:00 47.3 46.5 97 SSE 14 G 19 29.70 1005.7 0.01 0.01 0 0.000
24 03:00 46.7 45.9 97 SSE 18 G 22 29.72 1006.4 0.01 0.01 0 0.000
24 02:00 46.4 45.6 97 SSE 18 G 26 29.75 1007.4 0.00 0 0.000
24 01:00 45.5 44.7 45.7 44.2 97 SE 14 G 20 29.78 1008.5 0.01 0.02 0.02 0.00 0 0.000
24 00:00 45.2 44.4 97 SE 10 G 13 29.82 1009.9 0.01 0.25 0 0.039
23 23:00 44.6 43.5 96 SE 9 G 12 29.86 1011.1 0.23 0 0.039
23 22:00 44.3 43.2 96 ESE 9 G 12 29.86 1011.2 0.23 0 0.039
23 21:00 44.6 43.3 95 ESE 10 G 12 29.89 1012.1 0.23 0 0.039
23 20:00 44.8 43.5 95 ESE 11 G 14 29.90 1012.4 0.23 0 0.039
23 19:00 45.7 44.1 51.3 45.7 94 ESE 11 G 14 29.90 1012.4 0.23 0 0.039
23 18:00 46.8 44.6 92 E 7 G 10 29.91 1012.9 0.23 23 0.038
23 17:00 48.6 46.1 91 E 10 G 12 29.92 1013.1 0.23 132 0.033
23 16:00 48.4 45.9 91 E 8 G 13 29.92 1013.4 0.23 192 0.028
23 15:00 49.0 46.8 92 E 11 G 14 29.93 1013.5 0.23 128 0.024
23 14:00 50.7 49.3 95 ENE 5 G 11 29.94 1013.8 0.23 211 0.018
23 13:00 49.3 48.5 49.7 45.5 97 ENE 8 G 10 29.94 1014.0 0.02 0.23 306 0.015
23 12:00 49.4 48.9 98 WNW 1 G 8 29.96 1014.5 0.23 174 0.012
23 11:00 49.5 49.0 98 W 4 G 11 29.96 1014.7 0.23 109 0.007
23 10:00 47.7 47.2 98 NW 7 G 15 29.99 1015.5 0.02 0.23 186 0.004
23 09:00 46.5 46.0 98 NNE 10 G 14 29.98 1015.3 0.01 0.23 200 0.002
23 08:00 45.7 45.2 98 NNE 12 G 20 29.97 1015.0 0.01 0.22 77 0.001
23 07:00 46.9 46.4 47.2 44.1 98 NNE 11 G 20 29.97 1014.8 0.14 0.16 0.21 30 0.000
23 06:00 47.0 46.5 98 N 16 G 23 29.95 1014.2 0.06 0.21 19 0.000
23 05:00 46.0 45.5 98 NNW 13 G 22 29.94 1013.8 0.08 0.15 0 0.000
23 04:00 45.4 44.9 98 NNE 14 G 22 29.92 1013.1 0.02 0.02 0.07 0 0.000
23 03:00 44.3 43.5 97 NNE 18 G 24 29.90 1012.6 0.05 0 0.000
23 02:00 44.2 43.4 97 NE 17 G 25 29.90 1012.7 0.05 0 0.000
23 01:00 44.3 43.5 51.2 44.2 97 NNE 14 G 17 29.91 1013.0 0.06 0.21 0.42 0.05 0 0.000
23 00:00 45.6 44.8 97 NNE 10 G 16 29.93 1013.4 0.10 1.40 0 0.028
22 23:00 47.3 46.5 97 NE 8 G 23 29.94 1014.1 0.05 1.30 0 0.028
22 22:00 48.6 47.8 97 NE 18 G 24 29.96 1014.5 0.08 0.21 1.25 0 0.028
22 21:00 50.8 50.0 97 NNE 13 G 22 29.98 1015.1 0.08 1.17 0 0.028
22 20:00 51.1 50.3 97 NNE 16 G 22 30.00 1015.8 0.05 1.09 0 0.028
22 19:00 50.9 50.1 51.0 48.6 97 NNE 15 G 25 30.00 1015.8 0.10 0.45 0.93 1.04 0 0.028
22 18:00 50.5 49.7 97 NNE 11 G 18 30.01 1016.3 0.18 0.94 0 0.028
22 17:00 50.1 49.3 97 NNE 19 G 27 30.00 1016.1 0.17 0.76 5 0.027
22 16:00 50.6 49.8 97 NE 21 G 30 30.00 1015.8 0.21 0.48 0.59 35 0.026
22 15:00 50.4 49.6 97 NNE 15 G 29 30.00 1016.0 0.06 0.38 18 0.025
22 14:00 49.1 48.0 96 N 13 G 24 30.02 1016.8 0.21 0.32 54 0.024
22 13:00 49.0 47.6 52.4 49.0 95 NE 14 G 21 30.07 1018.2 0.11 0.11 0.11 0.11 60 0.023
22 12:00 51.3 49.6 94 NE 9 G 17 30.06 1017.8 0.00 51 0.019
22 11:00 51.2 49.2 93 NE 9 G 18 30.07 1018.3 0.00 206 0.014
22 10:00 51.0 49.3 94 NE 13 G 20 30.08 1018.6 0.00 227 0.009
22 09:00 51.4 50.3 96 NE 11 G 17 30.10 1019.4 0.00 183 0.006
22 08:00 51.6 50.5 96 NE 11 G 21 30.11 1019.7 0.00 127 0.003
22 07:00 52.2 51.1 52.6 50.8 96 NE 12 G 17 30.10 1019.5 0.00 83 0.001
22 06:00 51.9 50.5 95 NNE 11 G 15 30.10 1019.3 0.00 47 0.000
22 05:00 51.7 50.0 94 WNW 10 G 12 30.08 1018.8 0.00 0 0.000
22 04:00 51.7 50.3 95 WNW 6 G 8 30.09 1019.0 0.00 0 0.000
22 03:00 51.4 50.0 95 WSW 7 G 9 30.10 1019.4 0.00 0 0.000
22 02:00 51.6 50.2 95 WSW 9 G 12 30.11 1019.7 0.00 0 0.000
22 01:00 51.4 50.0 57.7 51.3 95 S 5 G 6 30.12 1020.1 0.00 0 0.000
22 00:00 51.4 50.0 95 SE 3 G 5 30.13 1020.4 0.03 0 0.076
21 23:00 52.0 50.6 95 S 8 G 11 30.14 1020.6 0.03 0 0.076
21 22:00 52.9 51.2 94 SSE 7 G 10 30.14 1020.5 0.03 0 0.076
21 21:00 53.8 51.5 92 SSE 7 G 11 30.13 1020.5 0.03 0 0.075
21 20:00 55.4 52.5 90 SSE 12 G 17 30.12 1020.0 0.03 0 0.074
21 19:00 57.7 53.5 67.4 57.7 86 S 13 G 21 30.10 1019.4 0.03 0 0.072

Data generated by WxSolution Version 1.9.1.5, Build 2018.05.20.